createdAt,value
2018-07-15T00:01:58.853Z,13.00
2018-07-15T00:04:27.227Z,12.90
2018-07-15T00:06:55.617Z,12.90
2018-07-15T00:09:23.898Z,12.90
2018-07-15T00:11:52.292Z,13.00
2018-07-15T00:14:20.587Z,13.10
2018-07-15T00:16:49.027Z,13.10
2018-07-15T00:19:23.927Z,13.10
2018-07-15T00:21:52.240Z,13.10
2018-07-15T00:24:20.517Z,13.20
2018-07-15T00:26:48.784Z,13.20
2018-07-15T00:29:17.177Z,13.20
2018-07-15T00:31:45.623Z,13.20
2018-07-15T00:34:13.954Z,13.20
2018-07-15T00:36:42.303Z,13.20
2018-07-15T00:39:10.620Z,13.20
2018-07-15T00:41:38.938Z,13.20
2018-07-15T00:44:07.236Z,13.20
2018-07-15T00:46:35.602Z,13.20
2018-07-15T00:49:03.989Z,13.20
2018-07-15T00:51:32.592Z,13.20
2018-07-15T00:54:00.934Z,13.10
2018-07-15T00:56:29.316Z,13.00
2018-07-15T00:58:57.673Z,13.00
2018-07-15T01:03:53.949Z,12.90
2018-07-15T01:06:22.337Z,12.90
2018-07-15T01:08:50.609Z,12.90
2018-07-15T01:11:18.904Z,12.90
2018-07-15T01:13:47.207Z,12.90
2018-07-15T01:16:15.573Z,12.90
2018-07-15T01:18:43.856Z,12.80
2018-07-15T01:21:12.220Z,12.80
2018-07-15T01:23:40.499Z,12.70
2018-07-15T01:26:08.847Z,12.60
2018-07-15T01:28:37.145Z,12.70
2018-07-15T01:31:05.613Z,12.70
2018-07-15T01:33:33.893Z,12.60
2018-07-15T01:36:02.191Z,12.60
2018-07-15T01:38:30.468Z,12.60
2018-07-15T01:40:58.755Z,12.50
2018-07-15T01:43:27.039Z,12.40
2018-07-15T01:45:55.388Z,12.40
2018-07-15T01:48:23.655Z,12.30
2018-07-15T01:50:51.952Z,12.30
2018-07-15T01:53:20.261Z,12.20
2018-07-15T01:55:48.551Z,12.20
2018-07-15T01:58:16.805Z,12.10
2018-07-15T02:00:45.121Z,12.10
2018-07-15T02:05:41.434Z,12.20
2018-07-15T02:08:09.754Z,12.20
2018-07-15T02:10:38.031Z,12.20
2018-07-15T02:13:06.509Z,12.20
2018-07-15T02:15:34.822Z,12.30
2018-07-15T02:18:03.108Z,12.30
2018-07-15T02:20:31.382Z,12.30
2018-07-15T02:22:59.730Z,12.30
2018-07-15T02:25:28.001Z,12.20
2018-07-15T02:27:56.283Z,12.10
2018-07-15T02:30:24.608Z,11.90
2018-07-15T02:32:52.984Z,11.90
2018-07-15T02:35:21.506Z,11.80
2018-07-15T02:37:49.814Z,11.80
2018-07-15T02:40:18.259Z,11.60
2018-07-15T02:42:46.979Z,11.60
2018-07-15T02:45:15.261Z,11.50
2018-07-15T02:47:43.556Z,11.50
2018-07-15T02:50:11.915Z,11.40
2018-07-15T02:52:40.207Z,11.40
2018-07-15T02:55:08.519Z,11.40
2018-07-15T02:57:36.809Z,11.40
2018-07-15T03:00:05.401Z,11.40
2018-07-15T03:02:33.695Z,11.40
2018-07-15T03:05:02.006Z,11.40
2018-07-15T03:07:30.295Z,11.30
2018-07-15T03:09:58.683Z,11.40
2018-07-15T03:12:26.976Z,11.40
2018-07-15T03:14:55.441Z,11.40
2018-07-15T03:17:23.813Z,11.30
2018-07-15T03:19:52.115Z,11.30
2018-07-15T03:22:20.404Z,11.20
2018-07-15T03:24:51.725Z,11.20
2018-07-15T03:27:20.010Z,11.20
2018-07-15T03:29:48.391Z,11.20
2018-07-15T03:32:16.676Z,11.20
2018-07-15T03:34:44.954Z,11.20
2018-07-15T03:37:13.257Z,11.20
2018-07-15T03:39:41.524Z,11.10
2018-07-15T03:42:09.885Z,11.10
2018-07-15T03:44:38.234Z,11.10
2018-07-15T03:47:06.486Z,11.20
2018-07-15T03:49:34.768Z,11.20
2018-07-15T03:52:03.063Z,11.20
2018-07-15T03:54:31.351Z,11.20
2018-07-15T03:56:59.627Z,11.20
2018-07-15T03:59:27.912Z,11.30
2018-07-15T04:01:56.217Z,11.30
2018-07-15T04:04:24.607Z,11.20
2018-07-15T04:06:52.909Z,11.20
2018-07-15T04:09:21.247Z,11.30
2018-07-15T04:11:49.612Z,11.30
2018-07-15T04:14:17.878Z,11.40
2018-07-15T04:16:46.225Z,11.50
2018-07-15T04:19:14.532Z,11.50
2018-07-15T04:21:42.814Z,11.60
2018-07-15T04:24:11.101Z,11.70
2018-07-15T04:26:39.509Z,11.70
2018-07-15T04:29:07.791Z,11.70
2018-07-15T04:31:36.155Z,11.90
2018-07-15T04:34:04.483Z,12.00
2018-07-15T04:36:33.122Z,12.10
2018-07-15T04:39:01.499Z,12.20
2018-07-15T04:41:29.809Z,12.40
2018-07-15T04:43:58.325Z,12.50
2018-07-15T04:46:26.543Z,12.60
2018-07-15T04:51:22.929Z,12.80
2018-07-15T04:53:51.308Z,12.90
2018-07-15T04:56:19.591Z,13.00
2018-07-15T04:58:47.925Z,13.10
2018-07-15T05:01:16.233Z,13.20
2018-07-15T05:03:44.608Z,13.40
2018-07-15T05:06:13.010Z,13.60
2018-07-15T05:08:41.374Z,13.90
2018-07-15T05:11:09.810Z,14.10
2018-07-15T05:13:38.287Z,14.30
2018-07-15T05:16:06.552Z,14.60
2018-07-15T05:18:34.985Z,14.80
2018-07-15T05:21:03.287Z,15.10
2018-07-15T05:23:31.821Z,15.50
2018-07-15T05:26:00.118Z,15.80
2018-07-15T05:28:28.559Z,16.10
2018-07-15T05:30:56.835Z,16.40
2018-07-15T05:33:25.148Z,16.80
2018-07-15T05:35:53.428Z,17.30
2018-07-15T05:38:21.719Z,17.70
2018-07-15T05:40:50.076Z,18.00
2018-07-15T05:43:18.378Z,18.40
2018-07-15T05:45:46.677Z,18.70
2018-07-15T05:48:15.025Z,18.90
2018-07-15T05:50:43.310Z,18.90
2018-07-15T05:53:11.740Z,19.10
2018-07-15T05:55:40.140Z,19.10
2018-07-15T05:58:08.772Z,19.30
2018-07-15T06:00:36.927Z,19.60
2018-07-15T06:03:05.455Z,19.80
2018-07-15T06:05:33.759Z,20.30
2018-07-15T06:08:02.152Z,21.00
2018-07-15T06:10:30.516Z,21.50
2018-07-15T06:12:58.902Z,21.80
2018-07-15T06:15:27.302Z,21.90
2018-07-15T06:17:55.731Z,22.20
2018-07-15T06:20:24.081Z,22.70
2018-07-15T06:22:52.484Z,22.80
2018-07-15T06:25:20.759Z,23.00
2018-07-15T06:30:17.273Z,23.20
2018-07-15T06:32:45.948Z,24.40
2018-07-15T06:35:14.269Z,24.70
2018-07-15T06:37:42.663Z,25.70
2018-07-15T06:40:11.027Z,26.20
2018-07-15T06:42:39.351Z,26.80
2018-07-15T06:45:07.681Z,27.60
2018-07-15T06:47:36.286Z,28.70
2018-07-15T06:50:04.864Z,29.50
2018-07-15T06:52:33.307Z,29.80
2018-07-15T06:55:01.660Z,29.80
2018-07-15T06:57:30.060Z,29.80
2018-07-15T06:59:58.489Z,29.60
2018-07-15T07:02:26.841Z,30.40
2018-07-15T07:04:55.153Z,31.10
2018-07-15T07:07:23.617Z,31.10
2018-07-15T07:09:51.840Z,30.80
2018-07-15T07:12:20.231Z,30.00
2018-07-15T07:14:48.626Z,28.60
2018-07-15T07:17:17.025Z,29.70
2018-07-15T07:19:45.393Z,29.80
2018-07-15T07:22:14.024Z,31.10
2018-07-15T07:24:42.454Z,30.40
2018-07-15T07:27:11.030Z,31.10
2018-07-15T07:32:07.703Z,31.80
2018-07-15T07:34:36.098Z,33.00
2018-07-15T07:37:04.503Z,33.10
2018-07-15T07:39:32.879Z,33.70
2018-07-15T07:42:01.329Z,34.50
2018-07-15T07:44:29.774Z,34.90
2018-07-15T07:46:58.588Z,34.10
2018-07-15T07:49:26.959Z,33.40
2018-07-15T07:51:55.445Z,34.10
2018-07-15T07:54:24.060Z,34.70
2018-07-15T07:56:52.489Z,34.90
2018-07-15T07:59:20.828Z,34.70
2018-07-15T08:01:49.177Z,34.30
2018-07-15T08:04:17.943Z,33.60
2018-07-15T08:06:46.471Z,33.00
2018-07-15T08:09:14.835Z,33.10
2018-07-15T08:11:43.169Z,33.60
2018-07-15T08:14:11.814Z,34.40
2018-07-15T08:16:40.156Z,34.90
2018-07-15T08:19:08.520Z,35.30
2018-07-15T08:21:37.003Z,35.80
2018-07-15T08:24:05.536Z,36.00
2018-07-15T08:26:34.187Z,36.00
2018-07-15T08:29:02.603Z,36.00
2018-07-15T08:31:30.903Z,35.70
2018-07-15T08:36:27.333Z,35.30
2018-07-15T08:38:55.679Z,34.20
2018-07-15T08:41:24.014Z,34.90
2018-07-15T08:43:52.333Z,35.10
2018-07-15T08:46:20.740Z,35.00
2018-07-15T08:48:49.042Z,34.30
2018-07-15T08:51:17.351Z,33.60
2018-07-15T08:53:45.783Z,33.50
2018-07-15T08:56:14.133Z,33.00
2018-07-15T08:58:42.443Z,32.60
2018-07-15T09:01:11.760Z,33.20
2018-07-15T09:03:40.103Z,33.10
2018-07-15T09:06:08.431Z,33.30
2018-07-15T09:08:36.746Z,33.00
2018-07-15T09:11:05.031Z,33.20
2018-07-15T09:13:33.366Z,33.90
2018-07-15T09:16:01.642Z,34.00
2018-07-15T09:18:29.947Z,34.20
2018-07-15T09:20:58.269Z,32.80
2018-07-15T09:23:26.589Z,31.70
2018-07-15T09:25:54.910Z,30.40
2018-07-15T09:28:23.171Z,29.10
2018-07-15T09:30:51.578Z,28.60
2018-07-15T09:33:19.903Z,28.40
2018-07-15T09:35:48.264Z,27.90
2018-07-15T09:38:16.551Z,27.20
2018-07-15T09:40:44.848Z,26.70
2018-07-15T09:43:13.118Z,26.30
2018-07-15T09:45:41.464Z,26.00
2018-07-15T09:48:09.870Z,25.90
2018-07-15T09:50:38.183Z,26.00
2018-07-15T09:55:34.508Z,26.00
2018-07-15T09:58:02.795Z,26.00
2018-07-15T10:00:36.457Z,25.70
2018-07-15T10:03:04.776Z,25.40
2018-07-15T10:05:33.071Z,25.30
2018-07-15T10:08:01.401Z,25.40
2018-07-15T10:10:29.738Z,25.40
2018-07-15T10:12:57.985Z,25.00
2018-07-15T10:15:26.320Z,24.80
2018-07-15T10:17:54.579Z,24.80
2018-07-15T10:20:22.876Z,24.80
2018-07-15T10:22:51.324Z,24.60
2018-07-15T10:25:19.643Z,24.50
2018-07-15T10:27:48.476Z,24.40
2018-07-15T10:30:16.821Z,24.50
2018-07-15T10:32:45.209Z,24.50
2018-07-15T10:35:13.702Z,24.70
2018-07-15T10:37:42.167Z,24.80
2018-07-15T10:40:10.466Z,24.80
2018-07-15T10:42:38.729Z,24.80
2018-07-15T10:45:07.086Z,24.60
2018-07-15T10:47:35.374Z,24.70
2018-07-15T10:50:03.673Z,24.60
2018-07-15T10:52:31.970Z,24.50
2018-07-15T10:55:00.269Z,24.20
2018-07-15T10:57:28.624Z,24.10
2018-07-15T10:59:57.510Z,24.00
2018-07-15T11:02:26.796Z,24.00
2018-07-15T11:04:55.182Z,24.20
2018-07-15T11:07:23.520Z,24.20
2018-07-15T11:09:53.717Z,24.30
2018-07-15T11:12:22.231Z,24.40
2018-07-15T11:14:50.604Z,24.50
2018-07-15T11:17:18.940Z,24.50
2018-07-15T11:19:47.281Z,24.50
2018-07-15T11:22:15.596Z,24.70
2018-07-15T11:24:43.881Z,25.10
2018-07-15T11:27:12.211Z,25.50
2018-07-15T11:29:41.199Z,25.50
2018-07-15T11:32:09.627Z,25.40
2018-07-15T11:34:37.986Z,25.10
2018-07-15T11:37:06.305Z,25.00
2018-07-15T11:39:34.580Z,25.00
2018-07-15T11:42:02.879Z,25.00
2018-07-15T11:44:31.192Z,24.90
2018-07-15T11:46:59.604Z,24.80
2018-07-15T11:49:27.891Z,25.00
2018-07-15T11:51:56.227Z,25.10
2018-07-15T11:54:24.544Z,25.20
2018-07-15T11:56:52.838Z,25.20
2018-07-15T11:59:21.131Z,25.00
2018-07-15T12:01:49.439Z,24.80
2018-07-15T12:04:17.731Z,24.60
2018-07-15T12:06:46.057Z,24.30
2018-07-15T12:09:14.445Z,24.30
2018-07-15T12:11:42.806Z,24.30
2018-07-15T12:16:39.146Z,24.50
2018-07-15T12:19:07.438Z,24.60
2018-07-15T12:21:35.755Z,24.90
2018-07-15T12:24:04.074Z,25.00
2018-07-15T12:26:32.395Z,24.50
2018-07-15T12:29:00.674Z,24.40
2018-07-15T12:31:29.144Z,24.40
2018-07-15T12:33:57.537Z,24.40
2018-07-15T12:36:25.879Z,24.40
2018-07-15T12:38:57.646Z,24.40
2018-07-15T12:41:25.959Z,24.30
2018-07-15T12:43:54.244Z,24.30
2018-07-15T12:46:22.601Z,24.30
2018-07-15T12:48:50.935Z,24.30
2018-07-15T12:51:19.425Z,24.30
2018-07-15T12:53:48.008Z,24.30
2018-07-15T12:56:16.567Z,24.20
2018-07-15T12:58:44.908Z,24.30
2018-07-15T13:01:13.208Z,24.30
2018-07-15T13:03:41.517Z,24.40
2018-07-15T13:08:37.827Z,24.60
2018-07-15T13:11:06.229Z,24.70
2018-07-15T13:13:34.569Z,24.80
2018-07-15T13:16:02.871Z,24.80
2018-07-15T13:18:31.204Z,24.90
2018-07-15T13:20:59.476Z,25.00
2018-07-15T13:23:27.778Z,25.00
2018-07-15T13:25:56.077Z,25.00
2018-07-15T13:28:24.395Z,25.10
2018-07-15T13:30:52.761Z,25.20
2018-07-15T13:33:21.093Z,25.20
2018-07-15T13:35:49.545Z,25.30
2018-07-15T13:38:17.877Z,25.30
2018-07-15T13:40:46.186Z,25.30
2018-07-15T13:43:14.492Z,25.20
2018-07-15T13:45:42.871Z,25.20
2018-07-15T13:48:11.356Z,25.10
2018-07-15T13:50:39.648Z,25.10
2018-07-15T13:53:08.004Z,25.20
2018-07-15T13:55:36.476Z,25.00
2018-07-15T13:58:05.009Z,25.00
2018-07-15T14:00:33.555Z,25.00
2018-07-15T14:03:01.950Z,24.90
2018-07-15T14:05:30.312Z,24.90
2018-07-15T14:07:58.623Z,24.90
2018-07-15T14:12:54.986Z,24.80
2018-07-15T14:15:23.287Z,24.70
2018-07-15T14:17:51.578Z,24.70
2018-07-15T14:20:19.888Z,24.70
2018-07-15T14:22:48.200Z,24.80
2018-07-15T14:25:16.605Z,24.70
2018-07-15T14:27:45.126Z,24.70
2018-07-15T14:30:13.453Z,24.60
2018-07-15T14:32:41.815Z,24.50
2018-07-15T14:35:10.174Z,24.40
2018-07-15T14:37:38.567Z,24.50
2018-07-15T14:40:06.971Z,24.40
2018-07-15T14:42:35.469Z,24.40
2018-07-15T14:45:03.875Z,24.50
2018-07-15T14:47:32.224Z,24.40
2018-07-15T14:50:00.619Z,24.40
2018-07-15T14:52:29.097Z,24.50
2018-07-15T14:54:57.492Z,24.50
2018-07-15T14:57:25.885Z,24.50
2018-07-15T14:59:54.252Z,24.50
2018-07-15T15:02:22.644Z,24.30
2018-07-15T15:04:51.722Z,24.10
2018-07-15T15:07:20.048Z,24.10
2018-07-15T15:09:48.392Z,24.00
2018-07-15T15:12:16.887Z,23.90
2018-07-15T15:14:45.338Z,23.40
2018-07-15T15:17:13.742Z,22.80
2018-07-15T15:19:42.192Z,22.00
2018-07-15T15:22:10.583Z,21.20
2018-07-15T15:24:39.054Z,20.60
2018-07-15T15:27:07.459Z,20.20
2018-07-15T15:29:35.833Z,19.80
2018-07-15T15:32:04.328Z,19.60
2018-07-15T15:34:32.726Z,19.40
2018-07-15T15:37:01.053Z,19.30
2018-07-15T15:39:29.415Z,19.20
2018-07-15T15:41:57.818Z,19.10
2018-07-15T15:44:26.158Z,19.10
2018-07-15T15:46:54.626Z,19.20
2018-07-15T15:49:22.988Z,19.40
2018-07-15T15:51:51.412Z,19.50
2018-07-15T15:54:19.755Z,19.60
2018-07-15T15:56:48.106Z,19.60
2018-07-15T15:59:16.431Z,19.60
2018-07-15T16:01:44.948Z,19.50
2018-07-15T16:04:13.336Z,19.60
2018-07-15T16:06:41.697Z,19.50
2018-07-15T16:09:10.198Z,19.40
2018-07-15T16:14:07.088Z,19.40
2018-07-15T16:16:35.576Z,19.40
2018-07-15T16:19:03.976Z,19.30
2018-07-15T16:21:32.389Z,19.30
2018-07-15T16:24:00.757Z,19.10
2018-07-15T16:26:29.141Z,19.10
2018-07-15T16:28:57.462Z,19.10
2018-07-15T16:31:26.129Z,19.00
2018-07-15T16:33:54.560Z,19.00
2018-07-15T16:36:22.865Z,18.90
2018-07-15T16:38:51.266Z,18.90
2018-07-15T16:41:19.649Z,18.90
2018-07-15T16:43:48.031Z,18.80
2018-07-15T16:46:16.440Z,18.70
2018-07-15T16:48:44.916Z,18.70
2018-07-15T16:51:13.241Z,18.70
2018-07-15T16:56:09.720Z,18.50
2018-07-15T16:58:38.158Z,18.40
2018-07-15T17:01:06.581Z,18.40
2018-07-15T17:03:34.961Z,18.30
2018-07-15T17:06:03.341Z,18.30
2018-07-15T17:08:31.680Z,18.20
2018-07-15T17:11:00.073Z,18.20
2018-07-15T17:13:28.433Z,18.20
2018-07-15T17:15:56.774Z,18.20
2018-07-15T17:18:25.141Z,18.20
2018-07-15T17:20:53.479Z,18.10
2018-07-15T17:23:21.791Z,18.10
2018-07-15T17:25:50.074Z,18.10
2018-07-15T17:28:18.415Z,18.00
2018-07-15T17:30:46.759Z,17.90
2018-07-15T17:33:15.063Z,17.80
2018-07-15T17:35:43.378Z,17.90
2018-07-15T17:38:11.670Z,17.90
2018-07-15T17:40:40.092Z,17.90
2018-07-15T17:43:08.328Z,17.80
2018-07-15T17:45:36.665Z,17.80
2018-07-15T17:48:05.012Z,17.80
2018-07-15T17:50:33.308Z,17.80
2018-07-15T17:55:29.779Z,17.70
2018-07-15T17:57:58.121Z,17.70
2018-07-15T18:00:26.432Z,17.70
2018-07-15T18:02:54.986Z,17.70
2018-07-15T18:05:26.461Z,17.80
2018-07-15T18:07:54.772Z,17.70
2018-07-15T18:10:23.163Z,17.70
2018-07-15T18:12:51.452Z,17.60
2018-07-15T18:15:19.809Z,17.60
2018-07-15T18:17:48.069Z,17.60
2018-07-15T18:20:16.424Z,17.60
2018-07-15T18:22:44.779Z,17.60
2018-07-15T18:25:13.164Z,17.50
2018-07-15T18:27:41.827Z,17.50
2018-07-15T18:30:10.243Z,17.40
2018-07-15T18:32:38.645Z,17.40
2018-07-15T18:35:07.025Z,17.40
2018-07-15T18:37:35.549Z,17.40
2018-07-15T18:42:31.995Z,17.50
2018-07-15T18:45:00.556Z,17.40
2018-07-15T18:47:28.714Z,17.40
2018-07-15T18:49:57.087Z,17.40
2018-07-15T18:52:25.395Z,17.40
2018-07-15T18:54:53.711Z,17.40
2018-07-15T18:57:22.059Z,17.30
2018-07-15T18:59:50.388Z,17.40
2018-07-15T19:02:18.749Z,17.30
2018-07-15T19:04:47.114Z,17.30
2018-07-15T19:07:15.571Z,17.20
2018-07-15T19:09:43.943Z,17.10
2018-07-15T19:12:12.369Z,17.00
2018-07-15T19:14:40.732Z,17.00
2018-07-15T19:17:09.033Z,17.00
2018-07-15T19:19:37.939Z,17.00
2018-07-15T19:22:07.462Z,17.00
2018-07-15T19:24:36.774Z,17.00
2018-07-15T19:27:05.157Z,17.00
2018-07-15T19:29:33.495Z,16.90
2018-07-15T19:32:01.876Z,16.90
2018-07-15T19:34:31.381Z,16.80
2018-07-15T19:36:59.815Z,16.80
2018-07-15T19:39:28.164Z,16.80
2018-07-15T19:41:56.476Z,16.80
2018-07-15T19:44:24.791Z,16.70
2018-07-15T19:46:53.131Z,16.70
2018-07-15T19:49:21.471Z,16.80
2018-07-15T19:51:49.816Z,16.70
2018-07-15T19:54:18.226Z,16.70
2018-07-15T19:56:46.577Z,16.60
2018-07-15T19:59:15.032Z,16.50
2018-07-15T20:01:43.505Z,16.50
2018-07-15T20:04:12.018Z,16.50
2018-07-15T20:06:40.347Z,16.40
2018-07-15T20:09:08.642Z,16.40
2018-07-15T20:11:37.011Z,16.40
2018-07-15T20:14:05.466Z,16.40
2018-07-15T20:16:33.814Z,16.30
2018-07-15T20:19:02.238Z,16.30
2018-07-15T20:21:30.749Z,16.30
2018-07-15T20:23:59.222Z,16.30
2018-07-15T20:26:27.617Z,16.30
2018-07-15T20:28:55.925Z,16.30
2018-07-15T20:31:24.368Z,16.30
2018-07-15T20:33:52.693Z,16.30
2018-07-15T20:36:21.072Z,16.30
2018-07-15T20:38:49.374Z,16.30
2018-07-15T20:41:17.734Z,16.30
2018-07-15T20:43:46.173Z,16.30
2018-07-15T20:46:14.526Z,16.30
2018-07-15T20:48:42.839Z,16.20
2018-07-15T20:51:11.191Z,16.20
2018-07-15T20:53:39.545Z,16.20
2018-07-15T20:56:07.866Z,16.20
2018-07-15T20:58:36.639Z,16.20
2018-07-15T21:01:05.084Z,16.20
2018-07-15T21:03:33.618Z,16.10
2018-07-15T21:06:01.955Z,16.10
2018-07-15T21:08:30.294Z,16.10
2018-07-15T21:10:58.752Z,16.10
2018-07-15T21:13:27.072Z,16.00
2018-07-15T21:15:55.417Z,16.00
2018-07-15T21:18:24.067Z,16.00
2018-07-15T21:20:52.459Z,16.00
2018-07-15T21:23:22.406Z,15.90
2018-07-15T21:25:50.787Z,15.90
2018-07-15T21:28:19.130Z,15.80
2018-07-15T21:30:47.435Z,15.70
2018-07-15T21:33:15.843Z,15.60
2018-07-15T21:35:44.162Z,15.60
2018-07-15T21:38:12.467Z,15.60
2018-07-15T21:40:40.828Z,15.60
2018-07-15T21:43:09.171Z,15.60
2018-07-15T21:45:37.479Z,15.60
2018-07-15T21:48:05.916Z,15.60
2018-07-15T21:50:34.376Z,15.60
2018-07-15T21:53:02.734Z,15.60
2018-07-15T21:55:31.979Z,15.60
2018-07-15T21:58:00.348Z,15.60
2018-07-15T22:00:28.690Z,15.60
2018-07-15T22:05:25.085Z,15.50
2018-07-15T22:08:04.806Z,15.50
2018-07-15T22:10:41.100Z,15.40
2018-07-15T22:13:09.368Z,15.40
2018-07-15T22:15:37.682Z,15.50
2018-07-15T22:18:06.297Z,15.40
2018-07-15T22:20:34.678Z,15.40
2018-07-15T22:23:02.999Z,15.50
2018-07-15T22:25:31.382Z,15.50
2018-07-15T22:28:00.072Z,15.50
2018-07-15T22:30:28.409Z,15.50
2018-07-15T22:32:56.796Z,15.50
2018-07-15T22:35:25.155Z,15.60
2018-07-15T22:37:53.516Z,15.60
2018-07-15T22:40:21.881Z,15.60
2018-07-15T22:45:18.315Z,15.60
2018-07-15T22:47:46.662Z,15.60
2018-07-15T22:50:15.023Z,15.60
2018-07-15T22:52:43.361Z,15.60
2018-07-15T22:57:39.756Z,15.60
2018-07-15T23:00:08.625Z,15.60
2018-07-15T23:02:36.986Z,15.60
2018-07-15T23:05:44.885Z,15.60
2018-07-15T23:08:13.291Z,15.60
2018-07-15T23:10:41.591Z,15.60
2018-07-15T23:13:10.610Z,15.60
2018-07-15T23:15:39.476Z,15.60
2018-07-15T23:18:07.873Z,15.60
2018-07-15T23:20:37.093Z,15.60
2018-07-15T23:23:06.369Z,15.60
2018-07-15T23:25:34.802Z,15.50
2018-07-15T23:28:03.791Z,15.50
2018-07-15T23:30:32.977Z,15.50
2018-07-15T23:33:01.841Z,15.50
2018-07-15T23:35:30.719Z,15.50
2018-07-15T23:37:59.142Z,15.50
2018-07-15T23:40:27.582Z,15.40
2018-07-15T23:42:56.863Z,15.40
2018-07-15T23:45:26.107Z,15.40
2018-07-15T23:47:55.020Z,15.40
2018-07-15T23:50:23.540Z,15.40
2018-07-15T23:52:52.035Z,15.40
2018-07-15T23:55:20.637Z,15.40
2018-07-15T23:57:48.998Z,15.40
